Terminal Aerodrome Forecast
Issued by NWS

Home | Current Version | Previous Version | Text Only | Print | Product List | Glossary On
Versions: 1 2 3 4 5 6 7 8 9 10 11 12 13 14 15 16 17 18 19 20 21 22 23 24 25 26 27 28 29 30 31 32
000
FTUS46 KLOX 191151
TAFPMD
TAF
KPMD 191151Z 1912/2012 20008KT P6SM SKC
     FM191900 23012KT P6SM SKC
     FM192100 23014G22KT P6SM SKC
     FM192300 23022G30KT P6SM SKC
     FM200300 24014G20KT P6SM SKC
     FM200700 22012KT P6SM SKC=

USA.gov is the U.S. government's official web portal to all federal, state and local government web resources and services.